createdAt,value
2022-09-03T00:00:03.243Z,944.63
2022-09-03T00:05:03.149Z,944.80
2022-09-03T00:10:03.164Z,944.84
2022-09-03T00:15:03.302Z,944.84
2022-09-03T00:20:03.413Z,944.88
2022-09-03T00:25:03.346Z,945.02
2022-09-03T00:30:03.169Z,945.04
2022-09-03T00:35:03.141Z,945.08
2022-09-03T00:40:03.484Z,945.10
2022-09-03T00:45:03.368Z,945.16
2022-09-03T00:50:03.319Z,945.10
2022-09-03T00:55:03.370Z,945.12
2022-09-03T01:00:03.138Z,945.12
2022-09-03T01:05:03.072Z,945.23
2022-09-03T01:10:03.217Z,945.18
2022-09-03T01:15:04.258Z,945.31
2022-09-03T01:20:03.390Z,945.51
2022-09-03T01:25:04.360Z,945.59
2022-09-03T01:30:08.174Z,945.22
2022-09-03T01:35:03.294Z,944.98
2022-09-03T01:40:03.359Z,945.08
2022-09-03T01:45:03.176Z,945.29
2022-09-03T01:50:03.276Z,945.16
2022-09-03T01:55:03.227Z,945.04
2022-09-03T02:00:03.220Z,945.04
2022-09-03T02:05:03.148Z,945.20
2022-09-03T02:10:03.269Z,945.25
2022-09-03T02:15:08.210Z,945.22
2022-09-03T02:20:03.256Z,945.23
2022-09-03T02:25:03.274Z,945.27
2022-09-03T02:30:03.257Z,945.55
2022-09-03T02:35:03.073Z,945.94
2022-09-03T02:40:03.281Z,945.96
2022-09-03T02:45:03.140Z,945.65
2022-09-03T02:50:03.268Z,945.57
2022-09-03T02:55:03.183Z,945.57
2022-09-03T03:00:03.201Z,945.59
2022-09-03T03:05:03.312Z,945.69
2022-09-03T03:10:03.226Z,945.57
2022-09-03T03:15:08.106Z,945.27
2022-09-03T03:20:03.310Z,945.49
2022-09-03T03:25:03.196Z,945.55
2022-09-03T03:30:03.172Z,945.45
2022-09-03T03:35:03.148Z,945.39
2022-09-03T03:40:03.413Z,945.29
2022-09-03T03:45:03.143Z,945.27
2022-09-03T03:50:03.351Z,945.31
2022-09-03T03:55:03.410Z,945.37
2022-09-03T04:00:03.085Z,945.27
2022-09-03T04:05:03.033Z,945.23
2022-09-03T04:10:03.431Z,945.16
2022-09-03T04:15:03.107Z,945.16
2022-09-03T04:20:03.313Z,945.06
2022-09-03T04:25:03.185Z,945.04
2022-09-03T04:30:03.077Z,945.10
2022-09-03T04:35:03.040Z,945.18
2022-09-03T04:40:03.194Z,945.25
2022-09-03T04:45:03.168Z,945.06
2022-09-03T04:50:03.377Z,945.06
2022-09-03T04:55:03.139Z,945.12
2022-09-03T05:00:03.376Z,944.96
2022-09-03T05:05:03.072Z,944.80
2022-09-03T05:10:03.340Z,944.74
2022-09-03T05:15:03.117Z,944.86
2022-09-03T05:20:03.286Z,945.22
2022-09-03T05:25:03.260Z,945.10
2022-09-03T05:30:03.252Z,945.23
2022-09-03T05:35:03.013Z,945.37
2022-09-03T05:40:03.207Z,945.12
2022-09-03T05:45:03.119Z,944.68
2022-09-03T05:50:03.245Z,945.16
2022-09-03T05:55:03.197Z,945.20
2022-09-03T06:00:04.405Z,945.41
2022-09-03T06:05:03.003Z,945.69
2022-09-03T06:10:03.201Z,945.63
2022-09-03T06:15:03.112Z,945.49
2022-09-03T06:20:03.227Z,944.17
2022-09-03T06:25:03.164Z,944.51
2022-09-03T06:30:03.319Z,944.59
2022-09-03T06:35:03.192Z,944.78
2022-09-03T06:40:03.276Z,945.04
2022-09-03T06:45:03.259Z,945.02
2022-09-03T06:50:03.423Z,945.02
2022-09-03T06:55:03.139Z,945.20
2022-09-03T07:00:03.359Z,945.12
2022-09-03T07:05:03.034Z,945.10
2022-09-03T07:10:03.210Z,945.12
2022-09-03T07:15:03.178Z,945.14
2022-09-03T07:20:03.219Z,945.10
2022-09-03T07:25:03.225Z,945.20
2022-09-03T07:30:03.329Z,945.20
2022-09-03T07:35:03.087Z,945.18
2022-09-03T07:40:03.299Z,945.20
2022-09-03T07:45:03.072Z,945.35
2022-09-03T07:50:03.409Z,945.35
2022-09-03T07:55:04.262Z,945.35
2022-09-03T08:00:03.412Z,945.49
2022-09-03T08:05:03.052Z,945.41
2022-09-03T08:10:03.184Z,945.37
2022-09-03T08:15:03.095Z,945.35
2022-09-03T08:20:03.275Z,945.37
2022-09-03T08:25:03.272Z,945.35
2022-09-03T08:30:03.221Z,945.45
2022-09-03T08:35:04.250Z,945.51
2022-09-03T08:40:03.238Z,945.55
2022-09-03T08:45:03.109Z,945.70
2022-09-03T08:50:03.211Z,945.70
2022-09-03T08:55:03.130Z,945.63
2022-09-03T09:00:03.399Z,945.63
2022-09-03T09:05:03.187Z,945.63
2022-09-03T09:10:03.113Z,945.65
2022-09-03T09:15:03.139Z,945.63
2022-09-03T09:20:03.258Z,945.69
2022-09-03T09:25:03.235Z,945.65
2022-09-03T09:30:03.269Z,945.59
2022-09-03T09:35:03.262Z,945.59
2022-09-03T09:40:03.196Z,945.72
2022-09-03T09:45:03.000Z,945.80
2022-09-03T09:50:03.250Z,945.82
2022-09-03T09:55:03.171Z,945.84
2022-09-03T10:00:08.305Z,945.74
2022-09-03T10:05:03.196Z,945.94
2022-09-03T10:10:03.142Z,946.04
2022-09-03T10:15:03.092Z,946.23
2022-09-03T10:20:03.300Z,946.08
2022-09-03T10:25:03.125Z,946.06
2022-09-03T10:30:03.230Z,946.22
2022-09-03T10:35:03.257Z,946.39
2022-09-03T10:40:03.290Z,946.59
2022-09-03T10:45:03.049Z,946.63
2022-09-03T10:50:03.330Z,946.65
2022-09-03T10:55:03.205Z,946.61
2022-09-03T11:00:03.351Z,946.76
2022-09-03T11:05:03.008Z,947.02
2022-09-03T11:10:03.054Z,946.98
2022-09-03T11:15:03.167Z,947.02
2022-09-03T11:20:03.159Z,947.08
2022-09-03T11:25:03.126Z,947.20
2022-09-03T11:30:03.123Z,947.49
2022-09-03T11:35:03.182Z,947.59
2022-09-03T11:40:03.136Z,947.53
2022-09-03T11:45:03.273Z,947.59
2022-09-03T11:50:03.228Z,947.75
2022-09-03T11:55:03.089Z,947.73
2022-09-03T12:00:03.213Z,947.67
2022-09-03T12:05:03.317Z,947.69
2022-09-03T12:10:03.273Z,947.73
2022-09-03T12:15:03.071Z,947.49
2022-09-03T12:20:03.155Z,947.65
2022-09-03T12:25:03.085Z,947.86
2022-09-03T12:30:03.237Z,947.79
2022-09-03T12:35:03.167Z,947.61
2022-09-03T12:40:06.254Z,947.53
2022-09-03T12:45:03.056Z,947.90
2022-09-03T12:50:03.132Z,948.28
2022-09-03T12:55:03.119Z,948.31
2022-09-03T13:00:03.268Z,947.82
2022-09-03T13:05:03.175Z,947.04
2022-09-03T13:10:03.335Z,947.10
2022-09-03T13:15:03.063Z,947.75
2022-09-03T13:20:03.193Z,947.86
2022-09-03T13:25:03.113Z,948.02
2022-09-03T13:30:03.239Z,948.02
2022-09-03T13:35:02.989Z,948.04
2022-09-03T13:40:03.254Z,948.14
2022-09-03T13:45:03.071Z,947.90
2022-09-03T13:50:03.249Z,948.28
2022-09-03T13:55:03.117Z,948.63
2022-09-03T14:00:03.280Z,948.16
2022-09-03T14:05:03.170Z,947.96
2022-09-03T14:10:03.361Z,948.43
2022-09-03T14:15:03.007Z,947.94
2022-09-03T14:20:03.169Z,947.80
2022-09-03T14:25:03.245Z,948.12
2022-09-03T14:30:03.282Z,948.10
2022-09-03T14:35:03.210Z,948.02
2022-09-03T14:40:04.137Z,948.02
2022-09-03T14:45:03.269Z,948.02
2022-09-03T14:50:03.329Z,947.94
2022-09-03T14:55:03.121Z,947.86
2022-09-03T15:00:03.344Z,947.86
2022-09-03T15:05:03.210Z,947.82
2022-09-03T15:10:03.258Z,947.79
2022-09-03T15:15:03.021Z,947.69
2022-09-03T15:20:03.181Z,947.67
2022-09-03T15:25:03.113Z,947.67
2022-09-03T15:30:03.209Z,947.65
2022-09-03T15:35:03.272Z,947.55
2022-09-03T15:40:03.664Z,947.37
2022-09-03T15:45:03.308Z,947.43
2022-09-03T15:50:03.119Z,947.41
2022-09-03T15:55:03.183Z,947.24
2022-09-03T16:00:03.315Z,947.16
2022-09-03T16:05:03.242Z,947.20
2022-09-03T16:10:23.588Z,947.18
2022-09-03T16:15:03.216Z,947.02
2022-09-03T16:20:03.203Z,947.10
2022-09-03T16:25:03.185Z,947.08
2022-09-03T16:30:03.177Z,947.10
2022-09-03T16:35:03.162Z,947.02
2022-09-03T16:40:03.506Z,946.98
2022-09-03T16:45:03.258Z,946.94
2022-09-03T16:50:03.386Z,947.02
2022-09-03T16:55:03.104Z,947.08
2022-09-03T17:00:03.273Z,946.94
2022-09-03T17:05:03.246Z,946.78
2022-09-03T17:10:03.439Z,946.78
2022-09-03T17:15:03.422Z,946.80
2022-09-03T17:20:03.448Z,946.74
2022-09-03T17:25:03.102Z,946.88
2022-09-03T17:30:03.243Z,946.74
2022-09-03T17:35:03.157Z,946.59
2022-09-03T17:40:03.326Z,946.59
2022-09-03T17:45:03.219Z,946.53
2022-09-03T17:50:03.100Z,946.45
2022-09-03T17:55:03.056Z,946.45
2022-09-03T18:00:03.190Z,946.45
2022-09-03T18:05:03.114Z,946.35
2022-09-03T18:10:03.300Z,946.29
2022-09-03T18:15:03.213Z,946.23
2022-09-03T18:20:03.405Z,946.18
2022-09-03T18:25:03.178Z,946.16
2022-09-03T18:30:03.177Z,946.08
2022-09-03T18:35:03.118Z,946.22
2022-09-03T18:40:03.490Z,946.20
2022-09-03T18:45:20.684Z,946.31
2022-09-03T18:50:03.401Z,946.39
2022-09-03T18:55:10.296Z,946.37
2022-09-03T19:00:03.220Z,946.35
2022-09-03T19:05:03.142Z,946.23
2022-09-03T19:10:03.325Z,946.27
2022-09-03T19:15:03.461Z,946.27
2022-09-03T19:20:03.431Z,946.25
2022-09-03T19:25:03.007Z,946.37
2022-09-03T19:30:03.227Z,946.47
2022-09-03T19:35:03.197Z,946.49
2022-09-03T19:40:03.339Z,946.57
2022-09-03T19:45:03.182Z,946.63
2022-09-03T19:50:03.312Z,946.67
2022-09-03T19:55:03.081Z,946.61
2022-09-03T20:00:03.433Z,946.59
2022-09-03T20:05:03.147Z,946.61
2022-09-03T20:10:03.273Z,946.65
2022-09-03T20:15:03.192Z,946.59
2022-09-03T20:20:03.494Z,946.61
2022-09-03T20:25:03.008Z,946.69
2022-09-03T20:30:08.199Z,946.76
2022-09-03T20:35:03.237Z,946.76
2022-09-03T20:40:03.361Z,946.74
2022-09-03T20:45:03.226Z,946.73
2022-09-03T20:50:03.386Z,946.71
2022-09-03T20:55:03.333Z,946.69
2022-09-03T21:00:03.303Z,946.69
2022-09-03T21:05:03.425Z,946.71
2022-09-03T21:10:03.154Z,946.76
2022-09-03T21:15:03.212Z,946.84
2022-09-03T21:20:03.349Z,946.88
2022-09-03T21:25:03.368Z,946.86
2022-09-03T21:30:03.178Z,946.92
2022-09-03T21:35:03.222Z,946.92
2022-09-03T21:40:03.571Z,946.94
2022-09-03T21:45:03.170Z,947.06
2022-09-03T21:50:03.393Z,947.14
2022-09-03T21:55:03.083Z,947.16
2022-09-03T22:00:03.247Z,947.16
2022-09-03T22:05:04.287Z,947.18
2022-09-03T22:10:03.249Z,947.22
2022-09-03T22:15:03.154Z,947.18
2022-09-03T22:20:03.333Z,947.20
2022-09-03T22:25:03.230Z,947.24
2022-09-03T22:30:03.127Z,947.33
2022-09-03T22:35:03.132Z,947.26
2022-09-03T22:40:03.493Z,947.31
2022-09-03T22:45:03.151Z,947.37
2022-09-03T22:50:03.284Z,947.45
2022-09-03T22:55:03.212Z,947.49
2022-09-03T23:00:03.133Z,947.53
2022-09-03T23:05:03.109Z,947.57
2022-09-03T23:10:03.379Z,947.67
2022-09-03T23:15:03.187Z,947.79
2022-09-03T23:25:03.399Z,947.92
2022-09-03T23:30:03.338Z,947.94
2022-09-03T23:35:03.329Z,948.00
2022-09-03T23:40:03.410Z,948.04
2022-09-03T23:45:03.162Z,948.10
2022-09-03T23:50:03.279Z,948.08
2022-09-03T23:55:03.301Z,948.10
